Time;durP1;ratioP1;P1;durP2;ratioP2;P2;SDS_P1;SDS_P2;PMS_P1;PMS_P2;Temp;Humidity;BMP_temperature;BMP_pressure;BME280_temperature;BME280_humidity;BME280_pressure;Samples;Min_cycle;Max_cycle;Signal;HPM_P1;HPM_P2
2023/09/24 00:01:04;;;;;;;;;;;;;;;17.86;84.81;95008.66;5114744;28;1084;-57
2023/09/24 00:03:33;;;;;;;;;;;;;;;17.88;85.13;95011.16;5114892;28;1019;-57
2023/09/24 00:06:06;;;;;;;;;;;;;;;17.95;84.42;95018.22;5115010;28;1043;-57
2023/09/24 00:08:33;;;;;;;;;;;;;;;18.01;84.37;95018.41;5115095;28;1028;-57
2023/09/24 00:10:59;;;;;;;;;;;;;;;17.89;85.27;95021.75;5114553;28;1915;-57
2023/09/24 00:13:25;;;;;;;;;;;;;;;17.50;86.76;95020.69;5114525;28;995;-57
2023/09/24 00:15:51;;;;;;;;;;;;;;;17.40;87.85;95005.94;5114738;28;1023;-57
2023/09/24 00:18:18;;;;;;;;;;;;;;;17.56;87.72;95002.81;5114707;28;969;-57
2023/09/24 00:20:44;;;;;;;;;;;;;;;17.69;86.17;94992.00;5114435;27;1088;-57
2023/09/24 00:23:14;;;;;;;;;;;;;;;17.74;85.40;94996.78;5114638;28;1059;-57
2023/09/24 00:25:40;;;;;;;;;;;;;;;17.84;85.09;94996.34;5114378;28;1244;-57
2023/09/24 00:28:07;;;;;;;;;;;;;;;17.95;84.59;94991.16;5114626;28;1059;-57
2023/09/24 00:30:36;;;;;;;;;;;;;;;17.86;84.33;94997.81;5113132;28;1917;-57
2023/09/24 00:33:04;;;;;;;;;;;;;;;17.66;84.76;94997.81;5114515;28;1007;-57
2023/09/24 00:35:31;;;;;;;;;;;;;;;17.70;85.18;95009.03;5114286;28;1064;-57
2023/09/24 00:37:57;;;;;;;;;;;;;;;17.92;84.51;94990.75;5114188;28;2485;-57
2023/09/24 00:40:23;;;;;;;;;;;;;;;17.93;84.55;94995.13;5094888;28;2904;-57
2023/09/24 00:42:49;;;;;;;;;;;;;;;17.85;85.34;95004.28;5093718;28;1114;-57
2023/09/24 00:45:15;;;;;;;;;;;;;;;17.88;85.84;95011.97;5093517;28;1279;-57
2023/09/24 00:47:46;;;;;;;;;;;;;;;17.88;85.96;95009.25;5093710;28;1079;-57
2023/09/24 00:50:13;;;;;;;;;;;;;;;17.92;85.81;94996.16;5093466;28;1914;-57
2023/09/24 00:52:41;;;;;;;;;;;;;;;17.64;86.05;94988.25;5093583;28;2527;-58
2023/09/24 00:55:08;;;;;;;;;;;;;;;17.53;86.31;94984.31;5093738;28;1009;-57
2023/09/24 00:57:34;;;;;;;;;;;;;;;17.69;85.53;94983.06;5093381;28;984;-57
2023/09/24 01:00:07;;;;;;;;;;;;;;;17.94;83.73;94988.66;5113144;28;1170;-57
2023/09/24 01:02:34;;;;;;;;;;;;;;;17.72;85.37;94994.28;5113971;28;1045;-57
2023/09/24 01:05:00;;;;;;;;;;;;;;;17.55;86.01;94985.75;5114088;28;968;-57
2023/09/24 01:07:28;;;;;;;;;;;;;;;17.35;86.97;94983.03;5113722;28;1877;-57
2023/09/24 01:09:54;;;;;;;;;;;;;;;17.28;87.87;94973.28;5113757;28;1890;-57
2023/09/24 01:12:23;;;;;;;;;;;;;;;17.75;84.38;94971.38;5113586;28;1017;-57
2023/09/24 01:14:49;;;;;;;;;;;;;;;17.98;83.10;94973.66;5113657;28;1214;-57
2023/09/24 01:17:17;;;;;;;;;;;;;;;17.86;84.53;94972.66;5113899;28;1007;-57
2023/09/24 01:19:43;;;;;;;;;;;;;;;17.53;85.37;94973.50;5113962;28;1043;-57
2023/09/24 01:22:09;;;;;;;;;;;;;;;17.10;87.85;94968.50;5113905;28;1000;-57
2023/09/24 01:24:35;;;;;;;;;;;;;;;17.14;87.95;94967.03;5113648;28;981;-57
2023/09/24 01:27:02;;;;;;;;;;;;;;;17.15;87.54;94968.72;5113105;28;1194;-57
2023/09/24 01:29:28;;;;;;;;;;;;;;;17.05;88.87;94971.78;5113793;28;976;-57
2023/09/24 01:31:54;;;;;;;;;;;;;;;17.14;88.18;94970.56;5113743;28;1984;-58
2023/09/24 01:34:20;;;;;;;;;;;;;;;17.31;87.37;94967.47;5113410;28;1032;-57
2023/09/24 01:36:46;;;;;;;;;;;;;;;17.33;87.53;94966.22;5113748;28;952;-57
2023/09/24 01:39:17;;;;;;;;;;;;;;;17.43;87.26;94970.38;5113373;28;1055;-57
2023/09/24 01:41:43;;;;;;;;;;;;;;;17.36;87.89;94968.50;5113445;28;1076;-57
2023/09/24 01:44:09;;;;;;;;;;;;;;;17.14;88.03;94962.47;5113640;28;1027;-57
2023/09/24 01:46:35;;;;;;;;;;;;;;;16.74;88.90;94969.63;5113440;28;1051;-57
2023/09/24 01:49:01;;;;;;;;;;;;;;;16.78;89.65;94968.19;5097666;28;2536;-57
2023/09/24 01:51:28;;;;;;;;;;;;;;;16.90;89.13;94971.16;5093142;28;2014;-57
2023/09/24 01:53:54;;;;;;;;;;;;;;;17.00;88.30;94978.84;5092823;28;1104;-57
2023/09/24 01:56:21;;;;;;;;;;;;;;;16.92;88.62;94979.88;5092808;28;1044;-57
2023/09/24 01:58:47;;;;;;;;;;;;;;;16.79;89.27;94973.41;5102274;28;1161;-57
2023/09/24 02:01:13;;;;;;;;;;;;;;;16.67;89.72;94972.31;5113305;28;964;-57
2023/09/24 02:03:39;;;;;;;;;;;;;;;16.65;90.49;94965.47;5113312;28;996;-57
2023/09/24 02:06:06;;;;;;;;;;;;;;;16.63;90.69;94971.06;5117244;28;960;-57
2023/09/24 02:08:32;;;;;;;;;;;;;;;16.57;90.73;94970.00;5117026;28;1044;-57
2023/09/24 02:10:59;;;;;;;;;;;;;;;16.49;90.96;94980.97;5116840;28;1914;-57
2023/09/24 02:13:25;;;;;;;;;;;;;;;16.67;90.14;94979.56;5117036;28;1059;-57
2023/09/24 02:15:51;;;;;;;;;;;;;;;16.83;91.02;94986.50;5117107;28;1043;-57
2023/09/24 02:18:17;;;;;;;;;;;;;;;16.66;90.26;94989.56;5117036;28;1047;-57
2023/09/24 02:20:47;;;;;;;;;;;;;;;16.56;89.68;94992.63;5116817;28;1118;-57
2023/09/24 02:23:13;;;;;;;;;;;;;;;16.49;89.99;94985.56;5116989;28;961;-57
2023/09/24 02:25:39;;;;;;;;;;;;;;;16.55;90.34;94987.44;5116880;28;1051;-57
2023/09/24 02:28:05;;;;;;;;;;;;;;;16.51;90.09;94996.97;5116664;28;944;-58
2023/09/24 02:30:31;;;;;;;;;;;;;;;16.37;90.87;94996.91;5116423;28;1988;-58
2023/09/24 02:32:58;;;;;;;;;;;;;;;16.55;90.39;94992.84;5116876;28;1048;-57
2023/09/24 02:35:25;;;;;;;;;;;;;;;16.50;90.40;94993.41;5116449;28;1099;-58
2023/09/24 02:37:51;;;;;;;;;;;;;;;16.62;89.95;94995.53;5116734;28;1051;-57
2023/09/24 02:40:23;;;;;;;;;;;;;;;16.65;90.18;94995.16;5116598;28;1079;-57
2023/09/24 02:42:52;;;;;;;;;;;;;;;16.71;89.79;94999.72;5116673;28;960;-58
2023/09/24 02:45:19;;;;;;;;;;;;;;;16.77;89.42;95001.63;5116440;28;960;-58
2023/09/24 02:47:46;;;;;;;;;;;;;;;16.82;88.81;94993.78;5116345;28;1000;-58
2023/09/24 02:50:15;;;;;;;;;;;;;;;16.62;89.62;94992.84;5116179;28;1982;-58
2023/09/24 02:52:41;;;;;;;;;;;;;;;16.69;89.21;94991.81;5115986;27;1226;-58
2023/09/24 02:55:10;;;;;;;;;;;;;;;16.77;88.47;94988.13;5116491;27;1059;-58
2023/09/24 02:57:37;;;;;;;;;;;;;;;16.79;89.57;94980.66;5116328;28;953;-57
2023/09/24 03:00:13;;;;;;;;;;;;;;;16.70;89.63;94987.28;5098925;28;2451;-57
2023/09/24 03:02:39;;;;;;;;;;;;;;;16.55;90.54;94979.34;5095731;28;1035;-57
2023/09/24 03:05:06;;;;;;;;;;;;;;;16.50;90.27;94984.50;5095609;28;976;-57
2023/09/24 03:07:32;;;;;;;;;;;;;;;16.42;90.86;94987.38;5095739;28;972;-57
2023/09/24 03:09:58;;;;;;;;;;;;;;;16.47;90.88;94993.03;5094230;28;1981;-57
2023/09/24 03:12:24;;;;;;;;;;;;;;;16.45;90.77;94993.22;5095528;28;1148;-57
2023/09/24 03:14:50;;;;;;;;;;;;;;;16.47;91.51;94995.72;5095495;28;1032;-56
2023/09/24 03:17:16;;;;;;;;;;;;;;;16.49;91.05;94989.06;5094765;28;1125;-57
2023/09/24 03:19:42;;;;;;;;;;;;;;;16.28;92.56;94986.50;5095532;28;976;-57
2023/09/24 03:22:08;;;;;;;;;;;;;;;16.13;92.88;94973.97;5095218;28;1107;-57
2023/09/24 03:24:34;;;;;;;;;;;;;;;16.29;91.98;94970.09;5095320;28;1078;-57
2023/09/24 03:27:00;;;;;;;;;;;;;;;16.68;90.39;94970.47;5095263;28;1046;-57
2023/09/24 03:29:26;;;;;;;;;;;;;;;16.76;89.65;94965.69;5095277;28;972;-57
2023/09/24 03:31:52;;;;;;;;;;;;;;;16.58;89.21;94960.88;5095280;28;1996;-57
2023/09/24 03:34:18;;;;;;;;;;;;;;;16.42;90.06;94966.63;5095159;28;1032;-57
2023/09/24 03:36:45;;;;;;;;;;;;;;;16.44;90.78;94966.44;5094913;28;944;-57
2023/09/24 03:39:11;;;;;;;;;;;;;;;16.66;90.52;94967.13;5095082;28;1047;-58
2023/09/24 03:41:37;;;;;;;;;;;;;;;16.63;90.02;94981.03;5094907;28;1044;-58
2023/09/24 03:44:04;;;;;;;;;;;;;;;16.46;91.18;94975.97;5095101;28;964;-57
2023/09/24 03:46:30;;;;;;;;;;;;;;;16.47;91.09;94988.44;5094956;28;1196;-58
2023/09/24 03:48:56;;;;;;;;;;;;;;;16.52;90.33;94990.53;5094742;28;1047;-57
2023/09/24 03:51:22;;;;;;;;;;;;;;;16.49;90.17;94996.34;5094360;28;1913;-57
2023/09/24 03:53:48;;;;;;;;;;;;;;;16.53;90.39;94992.22;5094606;28;1163;-58
2023/09/24 03:56:14;;;;;;;;;;;;;;;16.61;90.38;94999.28;5094707;28;1039;-57
2023/09/24 03:58:40;;;;;;;;;;;;;;;16.60;90.15;95011.97;5102884;28;1153;-58
2023/09/24 04:01:08;;;;;;;;;;;;;;;16.72;89.58;95001.41;5115089;28;969;-58
2023/09/24 04:03:34;;;;;;;;;;;;;;;16.38;90.92;95000.44;5115006;28;1035;-57
2023/09/24 04:06:06;;;;;;;;;;;;;;;16.25;92.06;95000.38;5114747;28;1102;-57
2023/09/24 04:08:32;;;;;;;;;;;;;;;16.40;91.04;95001.06;5114966;28;1042;-58
2023/09/24 04:10:58;;;;;;;;;;;;;;;16.53;91.00;95003.00;5115181;28;1910;-58
2023/09/24 04:13:24;;;;;;;;;;;;;;;16.46;91.46;95013.75;5114571;28;1047;-58
2023/09/24 04:15:52;;;;;;;;;;;;;;;16.46;91.63;95005.66;5114710;27;1023;-57
2023/09/24 04:18:19;;;;;;;;;;;;;;;16.51;91.30;95008.59;5114395;28;1048;-57
2023/09/24 04:20:45;;;;;;;;;;;;;;;16.30;91.78;95003.31;5114513;28;1083;-57
2023/09/24 04:23:11;;;;;;;;;;;;;;;16.30;91.45;95000.63;5114403;28;1139;-57
2023/09/24 04:25:38;;;;;;;;;;;;;;;16.38;91.92;95011.22;5114361;28;1045;-57
2023/09/24 04:28:04;;;;;;;;;;;;;;;16.59;91.80;95012.97;5113835;28;1055;-57
2023/09/24 04:30:30;;;;;;;;;;;;;;;16.71;91.20;95018.63;5114188;28;1999;-58
2023/09/24 04:32:58;;;;;;;;;;;;;;;16.73;90.99;95022.81;5114290;28;1007;-57
2023/09/24 04:35:27;;;;;;;;;;;;;;;16.81;91.24;95027.19;5114458;28;968;-57
2023/09/24 04:37:53;;;;;;;;;;;;;;;16.84;90.81;95031.38;5114351;27;1170;-57
2023/09/24 04:40:19;;;;;;;;;;;;;;;16.86;91.60;95027.44;5114054;28;1043;-57
2023/09/24 04:42:46;;;;;;;;;;;;;;;16.84;90.86;95032.19;5114189;28;1086;-57
2023/09/24 04:45:12;;;;;;;;;;;;;;;16.88;91.01;95038.03;5114171;28;960;-56
2023/09/24 04:47:39;;;;;;;;;;;;;;;16.91;91.83;95035.75;5113951;28;1153;-58
2023/09/24 04:50:06;;;;;;;;;;;;;;;16.83;92.01;95024.28;5113959;28;1993;-57
2023/09/24 04:52:33;;;;;;;;;;;;;;;16.77;93.44;95023.25;5114159;28;1039;-57
2023/09/24 04:55:00;;;;;;;;;;;;;;;16.78;93.36;95032.97;5113843;28;1179;-57
2023/09/24 04:57:26;;;;;;;;;;;;;;;16.89;93.44;95029.72;5113835;28;1119;-57
2023/09/24 04:59:53;;;;;;;;;;;;;;;17.02;93.96;95037.03;5113796;28;1157;-57
2023/09/24 05:02:21;;;;;;;;;;;;;;;17.17;93.77;95042.28;5113743;28;961;-57
2023/09/24 05:04:50;;;;;;;;;;;;;;;17.33;92.78;95041.03;5114096;28;987;-56
2023/09/24 05:07:16;;;;;;;;;;;;;;;17.50;91.00;95042.31;5113723;28;1107;-57
2023/09/24 05:09:43;;;;;;;;;;;;;;;17.46;92.53;95032.97;5113784;28;1206;-57
2023/09/24 05:12:10;;;;;;;;;;;;;;;17.54;90.57;95026.50;5113686;28;1898;-57
2023/09/24 05:14:36;;;;;;;;;;;;;;;17.72;88.33;95026.72;5114042;28;965;-58
2023/09/24 05:17:02;;;;;;;;;;;;;;;17.81;90.80;95027.31;5113737;28;1023;-58
2023/09/24 05:19:28;;;;;;;;;;;;;;;17.93;90.35;95024.88;5113790;28;1008;-57
2023/09/24 05:21:54;;;;;;;;;;;;;;;18.07;89.59;95020.28;5113982;28;1051;-57
2023/09/24 05:24:20;;;;;;;;;;;;;;;18.18;88.36;95018.81;5113524;28;1094;-56
2023/09/24 05:26:46;;;;;;;;;;;;;;;18.22;88.35;95030.88;5114100;28;1015;-57
2023/09/24 05:29:12;;;;;;;;;;;;;;;18.21;88.21;95027.34;5113601;28;1047;-57
2023/09/24 05:31:38;;;;;;;;;;;;;;;18.22;88.84;95018.16;5113391;28;1902;-57
2023/09/24 05:34:05;;;;;;;;;;;;;;;18.30;86.60;95030.63;5113656;28;1132;-57
2023/09/24 05:36:32;;;;;;;;;;;;;;;18.27;85.89;95021.06;5113765;28;980;-56
2023/09/24 05:39:03;;;;;;;;;;;;;;;18.29;89.15;95028.97;5114252;28;1034;-57
2023/09/24 05:41:29;;;;;;;;;;;;;;;18.23;88.97;95030.66;5116678;28;996;-57
2023/09/24 05:44:00;;;;;;;;;;;;;;;18.23;89.68;95027.94;5117630;28;976;-57
2023/09/24 05:46:26;;;;;;;;;;;;;;;18.32;88.01;95032.06;5117670;28;928;-57
2023/09/24 05:48:58;;;;;;;;;;;;;;;18.39;89.38;95034.78;5117394;28;1118;-57
2023/09/24 05:51:24;;;;;;;;;;;;;;;18.33;89.23;95032.91;5117212;28;1982;-57
2023/09/24 05:53:52;;;;;;;;;;;;;;;18.41;89.66;95037.28;5117280;28;1332;-57
2023/09/24 05:56:18;;;;;;;;;;;;;;;18.58;87.67;95032.22;5117478;28;1039;-57
2023/09/24 05:58:44;;;;;;;;;;;;;;;19.06;84.27;95029.94;5117116;28;1265;-56
2023/09/24 06:01:15;;;;;;;;;;;;;;;19.52;83.82;95041.56;5117061;28;1024;-56
2023/09/24 06:03:41;;;;;;;;;;;;;;;19.79;82.51;95041.38;5117100;28;989;-57
2023/09/24 06:06:10;;;;;;;;;;;;;;;20.20;79.43;95054.34;5117386;28;1040;-57
2023/09/24 06:08:37;;;;;;;;;;;;;;;20.48;78.88;95053.84;5117282;28;976;-58
2023/09/24 06:11:04;;;;;;;;;;;;;;;20.40;78.86;95050.63;5116877;28;1982;-58
2023/09/24 06:13:31;;;;;;;;;;;;;;;20.51;78.46;95057.19;5116790;28;1023;-58
2023/09/24 06:16:00;;;;;;;;;;;;;;;20.65;76.08;95058.72;5116037;28;1047;-58
2023/09/24 06:18:26;;;;;;;;;;;;;;;20.38;77.04;95050.84;5117082;28;960;-58
2023/09/24 06:20:53;;;;;;;;;;;;;;;20.58;77.42;95052.50;5117089;28;1038;-57
2023/09/24 06:23:19;;;;;;;;;;;;;;;20.42;77.33;95054.78;5116696;27;1056;-58
2023/09/24 06:25:46;;;;;;;;;;;;;;;20.30;76.39;95062.00;5116964;28;972;-58
2023/09/24 06:28:12;;;;;;;;;;;;;;;20.71;73.96;95062.44;5116592;28;1064;-57
2023/09/24 06:30:41;;;;;;;;;;;;;;;20.44;75.96;95063.50;5116803;28;1910;-58
2023/09/24 06:33:07;;;;;;;;;;;;;;;20.48;74.61;95066.63;5116916;28;960;-57
2023/09/24 06:35:39;;;;;;;;;;;;;;;20.42;75.33;95065.63;5116625;28;1083;-58
2023/09/24 06:38:05;;;;;;;;;;;;;;;20.52;75.26;95067.00;5116827;28;969;-58
2023/09/24 06:40:31;;;;;;;;;;;;;;;20.79;76.26;95065.69;5116268;28;1044;-59
2023/09/24 06:42:57;;;;;;;;;;;;;;;20.80;74.83;95061.91;5116727;28;964;-58
2023/09/24 06:45:23;;;;;;;;;;;;;;;20.68;76.95;95063.72;5116588;28;1047;-58
2023/09/24 06:47:49;;;;;;;;;;;;;;;20.70;77.11;95061.63;5116506;28;1089;-58
2023/09/24 06:50:15;;;;;;;;;;;;;;;20.89;75.24;95065.16;5115633;28;1913;-58
2023/09/24 06:52:41;;;;;;;;;;;;;;;21.19;72.46;95064.34;5114766;28;1088;-59
2023/09/24 06:55:10;;;;;;;;;;;;;;;21.17;74.67;95061.88;5116417;28;960;-58
2023/09/24 06:57:36;;;;;;;;;;;;;;;21.15;72.92;95050.41;5107764;28;2501;-58
2023/09/24 07:00:04;;;;;;;;;;;;;;;21.13;74.35;95060.66;5115475;28;1166;-58
2023/09/24 07:02:30;;;;;;;;;;;;;;;21.30;73.56;95055.41;5115785;28;1040;-58
2023/09/24 07:04:56;;;;;;;;;;;;;;;21.41;75.08;95053.81;5116354;28;1007;-58
2023/09/24 07:07:22;;;;;;;;;;;;;;;21.50;69.32;95054.34;5115914;28;1094;-58
2023/09/24 07:09:48;;;;;;;;;;;;;;;21.61;70.46;95045.38;5115846;28;1031;-58
2023/09/24 07:12:16;;;;;;;;;;;;;;;21.54;75.08;95050.91;5115977;28;1914;-58
2023/09/24 07:14:43;;;;;;;;;;;;;;;21.49;76.01;95047.22;5115770;28;1036;-58
2023/09/24 07:17:09;;;;;;;;;;;;;;;21.72;74.74;95043.75;5116080;28;1039;-58
2023/09/24 07:19:35;;;;;;;;;;;;;;;22.20;72.79;95050.91;5115976;28;1055;-56
2023/09/24 07:22:02;;;;;;;;;;;;;;;22.46;71.27;95046.06;5115689;28;1060;-58
2023/09/24 07:24:28;;;;;;;;;;;;;;;22.75;69.64;95034.19;5115724;28;965;-58
2023/09/24 07:26:54;;;;;;;;;;;;;;;23.02;67.13;95041.84;5115791;28;1217;-58
2023/09/24 07:29:20;;;;;;;;;;;;;;;23.38;65.27;95032.47;5115744;28;984;-58
2023/09/24 07:31:46;;;;;;;;;;;;;;;23.52;66.38;95043.09;5115399;28;1905;-57
2023/09/24 07:34:12;;;;;;;;;;;;;;;23.55;65.19;95029.78;5115515;28;908;-58
2023/09/24 07:36:38;;;;;;;;;;;;;;;23.53;63.65;95026.47;5115705;28;1055;-58
2023/09/24 07:39:05;;;;;;;;;;;;;;;23.64;63.24;95029.38;5115534;28;1024;-58
2023/09/24 07:41:31;;;;;;;;;;;;;;;24.02;62.35;95036.91;5115213;28;1083;-58
2023/09/24 07:43:57;;;;;;;;;;;;;;;24.34;59.57;95028.94;5115271;28;1041;-58
2023/09/24 07:46:23;;;;;;;;;;;;;;;24.59;58.65;95022.22;5115231;28;969;-58
2023/09/24 07:48:50;;;;;;;;;;;;;;;25.02;59.42;95020.56;5115244;28;1051;-55
2023/09/24 07:51:16;;;;;;;;;;;;;;;25.34;58.91;95019.88;5115238;28;1993;-56
2023/09/24 07:53:44;;;;;;;;;;;;;;;25.28;57.92;95010.78;5115001;27;1182;-56
2023/09/24 07:56:11;;;;;;;;;;;;;;;25.34;58.13;95014.38;5114947;28;1027;-56
2023/09/24 07:58:38;;;;;;;;;;;;;;;25.06;59.39;95029.94;5102454;28;2551;-56
2023/09/24 08:01:04;;;;;;;;;;;;;;;24.63;60.00;95031.56;5115123;27;1040;-57
2023/09/24 08:03:31;;;;;;;;;;;;;;;24.29;59.27;95037.03;5114774;28;1099;-57
2023/09/24 08:05:57;;;;;;;;;;;;;;;24.26;60.52;95036.72;5115143;28;968;-57
2023/09/24 08:08:24;;;;;;;;;;;;;;;24.06;61.26;95031.78;5114589;28;1068;-58
2023/09/24 08:10:50;;;;;;;;;;;;;;;23.89;61.93;95032.59;5115028;28;2006;-58
2023/09/24 08:13:18;;;;;;;;;;;;;;;23.68;62.33;95036.00;5114801;28;1050;-57
2023/09/24 08:15:44;;;;;;;;;;;;;;;23.55;64.39;95035.25;5113578;28;992;-58
2023/09/24 08:18:11;;;;;;;;;;;;;;;23.57;63.21;95030.34;5114508;28;1084;-58
2023/09/24 08:20:37;;;;;;;;;;;;;;;23.54;62.27;95030.88;5114561;28;1205;-58
2023/09/24 08:23:04;;;;;;;;;;;;;;;23.57;62.76;95033.09;5114446;28;1056;-58
2023/09/24 08:25:30;;;;;;;;;;;;;;;23.70;62.08;95028.41;5113244;28;1020;-58
2023/09/24 08:27:57;;;;;;;;;;;;;;;23.72;61.40;95034.44;5114425;28;1106;-58
2023/09/24 08:30:24;;;;;;;;;;;;;;;23.75;61.51;95025.75;5114176;28;1906;-58
2023/09/24 08:32:50;;;;;;;;;;;;;;;23.90;62.10;95036.97;5114471;28;968;-58
2023/09/24 08:35:16;;;;;;;;;;;;;;;24.03;60.83;95037.72;5114258;28;1043;-58
2023/09/24 08:37:42;;;;;;;;;;;;;;;24.01;60.45;95034.41;5114172;28;1084;-58
2023/09/24 08:40:09;;;;;;;;;;;;;;;24.04;62.31;95028.47;5114536;28;1015;-59
2023/09/24 08:42:36;;;;;;;;;;;;;;;23.95;59.84;95028.84;5114487;28;965;-58
2023/09/24 08:45:09;;;;;;;;;;;;;;;24.10;60.79;95025.53;5114162;28;1031;-58
2023/09/24 08:47:36;;;;;;;;;;;;;;;24.17;62.24;95028.94;5112858;28;1037;-58
2023/09/24 08:50:03;;;;;;;;;;;;;;;24.22;61.23;95025.44;5101323;28;2485;-57
2023/09/24 08:52:35;;;;;;;;;;;;;;;24.24;60.22;95027.94;5093670;28;1997;-58
2023/09/24 08:55:02;;;;;;;;;;;;;;;24.23;62.12;95020.84;5093498;28;1194;-58
2023/09/24 08:57:30;;;;;;;;;;;;;;;24.31;60.11;95014.94;5093490;28;1095;-58
2023/09/24 08:59:56;;;;;;;;;;;;;;;24.35;61.38;95019.63;5112180;28;1157;-58
2023/09/24 09:02:22;;;;;;;;;;;;;;;24.40;60.33;95013.44;5112331;28;3012;-58
2023/09/24 09:04:49;;;;;;;;;;;;;;;24.47;59.50;95010.50;5113912;28;1023;-58
2023/09/24 09:07:16;;;;;;;;;;;;;;;24.53;57.35;95018.56;5113378;28;980;-58
2023/09/24 09:09:52;;;;;;;;;;;;;;;24.49;57.52;95019.28;5113823;28;1247;-58
2023/09/24 09:12:21;;;;;;;;;;;;;;;24.53;57.59;95018.56;5113933;28;1890;-58
2023/09/24 09:14:47;;;;;;;;;;;;;;;24.54;59.46;95014.75;5113329;28;1051;-58
2023/09/24 09:17:13;;;;;;;;;;;;;;;24.57;58.49;95012.59;5113607;28;965;-58
2023/09/24 09:19:52;;;;;;;;;;;;;;;24.63;59.36;95009.69;5113888;28;1047;-58
2023/09/24 09:22:20;;;;;;;;;;;;;;;24.69;58.94;95008.66;5113571;28;1067;-58
2023/09/24 09:24:47;;;;;;;;;;;;;;;24.72;57.98;95008.16;5113675;28;1095;-58
2023/09/24 09:27:13;;;;;;;;;;;;;;;24.80;58.00;95000.63;5113523;28;1072;-58
2023/09/24 09:29:39;;;;;;;;;;;;;;;24.85;58.81;94992.47;5112470;28;996;-58
2023/09/24 09:32:05;;;;;;;;;;;;;;;24.93;57.84;94992.03;5113696;28;1935;-58
2023/09/24 09:34:32;;;;;;;;;;;;;;;25.02;57.44;94995.94;5113714;28;1047;-58
2023/09/24 09:37:17;;;;;;;;;;;;;;;25.04;58.54;94996.53;5113722;28;1043;-58
2023/09/24 09:39:44;;;;;;;;;;;;;;;25.10;58.78;94997.44;5108253;28;2490;-59
2023/09/24 09:42:10;;;;;;;;;;;;;;;25.21;55.86;94987.41;5093063;28;1064;-58
2023/09/24 09:44:37;;;;;;;;;;;;;;;25.26;58.03;94991.06;5093053;28;1000;-57
2023/09/24 09:47:05;;;;;;;;;;;;;;;25.36;55.37;94990.31;5092213;28;1019;-56
2023/09/24 09:49:32;;;;;;;;;;;;;;;25.46;57.09;94984.13;5093194;28;1044;-56
2023/09/24 09:52:01;;;;;;;;;;;;;;;25.62;57.64;94982.38;5093270;28;1906;-55
2023/09/24 09:54:32;;;;;;;;;;;;;;;25.74;58.62;94982.19;5092794;28;1085;-57
2023/09/24 09:56:58;;;;;;;;;;;;;;;25.70;58.63;94976.41;5092979;28;1004;-58
2023/09/24 09:59:26;;;;;;;;;;;;;;;25.65;58.93;94970.88;5107298;28;1142;-58
2023/09/24 10:01:52;;;;;;;;;;;;;;;25.63;59.49;94973.91;5113635;28;1015;-58
2023/09/24 10:04:19;;;;;;;;;;;;;;;25.76;59.34;94975.38;5113325;28;1071;-58
2023/09/24 10:06:45;;;;;;;;;;;;;;;25.82;58.45;94982.56;5113401;28;1000;-58
2023/09/24 10:09:27;;;;;;;;;;;;;;;25.75;57.71;94981.94;5113443;28;1024;-58
2023/09/24 10:11:53;;;;;;;;;;;;;;;25.72;56.57;94979.72;5113338;28;1988;-58
2023/09/24 10:14:39;;;;;;;;;;;;;;;25.60;55.41;94984.56;5113401;28;1059;-58
2023/09/24 10:17:24;;;;;;;;;;;;;;;25.56;54.99;94986.97;5113323;28;1031;-57
2023/09/24 10:19:54;;;;;;;;;;;;;;;25.56;56.05;94983.44;5113237;28;967;-58
2023/09/24 10:22:30;;;;;;;;;;;;;;;25.57;55.05;94985.88;5113262;28;964;-58
2023/09/24 10:24:57;;;;;;;;;;;;;;;25.66;55.05;94988.97;5113093;28;1024;-58
2023/09/24 10:27:23;;;;;;;;;;;;;;;25.72;58.33;94976.97;5115767;28;991;-58
2023/09/24 10:29:51;;;;;;;;;;;;;;;25.73;56.99;94984.13;5115096;28;2556;-57
2023/09/24 10:32:17;;;;;;;;;;;;;;;25.77;59.01;94973.47;5096159;28;1902;-59
2023/09/24 10:34:55;;;;;;;;;;;;;;;25.81;57.86;94980.09;5096099;28;1052;-58
2023/09/24 10:37:22;;;;;;;;;;;;;;;25.84;56.21;94972.16;5095530;28;2567;-57
2023/09/24 10:42:27;;;;;;;;;;;;;;;25.90;56.86;94975.78;5095907;28;1088;-58
2023/09/24 10:45:06;;;;;;;;;;;;;;;25.94;56.67;94973.38;5099288;28;2577;-58
2023/09/24 10:47:35;;;;;;;;;;;;;;;25.94;57.07;94970.63;5116541;28;1059;-58
2023/09/24 10:50:10;;;;;;;;;;;;;;;25.94;58.87;94970.63;5116281;28;1039;-58
2023/09/24 10:52:53;;;;;;;;;;;;;;;25.94;59.77;94965.97;5116451;28;1979;-57
2023/09/24 10:55:33;;;;;;;;;;;;;;;25.95;58.80;94973.09;5114228;28;2499;-58
2023/09/24 10:58:01;;;;;;;;;;;;;;;25.97;58.70;94975.56;5116490;28;1165;-58
2023/09/24 11:00:27;;;;;;;;;;;;;;;25.94;58.40;94978.84;5116292;28;1003;-58
2023/09/24 11:02:54;;;;;;;;;;;;;;;25.93;59.07;94974.44;5116069;27;995;-58
2023/09/24 11:05:20;;;;;;;;;;;;;;;25.99;57.18;94970.66;5115953;28;1048;-58
2023/09/24 11:07:46;;;;;;;;;;;;;;;26.06;57.94;94968.53;5116301;28;1031;-58
2023/09/24 11:10:19;;;;;;;;;;;;;;;26.04;57.98;94966.03;5115795;28;995;-58
2023/09/24 11:12:49;;;;;;;;;;;;;;;26.01;56.58;94974.81;5116100;28;1034;-57
2023/09/24 11:15:16;;;;;;;;;;;;;;;25.97;58.95;94976.41;5114533;28;1040;-58
2023/09/24 11:17:44;;;;;;;;;;;;;;;25.93;55.08;94977.19;5115931;28;964;-57
2023/09/24 11:20:10;;;;;;;;;;;;;;;25.94;53.99;94974.19;5115992;28;1035;-58
2023/09/24 11:22:36;;;;;;;;;;;;;;;26.08;54.44;94966.34;5115775;27;968;-58
2023/09/24 11:25:06;;;;;;;;;;;;;;;26.15;55.73;94953.25;5114438;28;1047;-56
2023/09/24 11:27:33;;;;;;;;;;;;;;;26.14;55.90;94969.94;5096914;27;2535;-58
2023/09/24 11:29:59;;;;;;;;;;;;;;;26.07;54.56;94981.97;5095179;28;1112;-58
2023/09/24 11:32:27;;;;;;;;;;;;;;;26.08;54.82;94983.59;5095058;28;1983;-58
2023/09/24 11:35:12;;;;;;;;;;;;;;;25.99;53.76;94970.66;5095255;28;1027;-58
2023/09/24 11:38:01;;;;;;;;;;;;;;;26.00;54.59;94973.13;5094039;28;2960;-59
2023/09/24 11:40:33;;;;;;;;;;;;;;;26.04;54.27;94974.25;5094886;28;1059;-58
2023/09/24 11:43:12;;;;;;;;;;;;;;;26.04;58.24;94967.97;5095217;28;999;-58
2023/09/24 11:45:38;;;;;;;;;;;;;;;26.03;57.70;94969.88;5095120;28;1000;-58
2023/09/24 11:48:05;;;;;;;;;;;;;;;26.00;58.69;94975.06;5094742;28;1048;-58
2023/09/24 11:50:31;;;;;;;;;;;;;;;25.99;56.26;94973.41;5096104;28;2482;-59
2023/09/24 11:52:57;;;;;;;;;;;;;;;25.97;56.33;94979.16;5094858;28;1211;-61
2023/09/24 11:55:23;;;;;;;;;;;;;;;25.92;56.67;94992.00;5093700;28;1037;-60
2023/09/24 11:57:49;;;;;;;;;;;;;;;25.90;57.26;94987.56;5095471;28;1157;-57
2023/09/24 12:00:16;;;;;;;;;;;;;;;25.90;59.13;94962.91;5114856;28;1967;-57
2023/09/24 12:02:42;;;;;;;;;;;;;;;25.85;60.99;94942.88;5101472;28;2584;-57
2023/09/24 12:05:08;;;;;;;;;;;;;;;25.82;61.15;94949.69;5096045;28;2785;-57
2023/09/24 12:07:34;;;;;;;;;;;;;;;25.83;60.19;94956.81;5094684;28;1023;-57
2023/09/24 12:10:01;;;;;;;;;;;;;;;25.81;60.83;94967.22;5094543;28;1027;-58
2023/09/24 12:12:27;;;;;;;;;;;;;;;25.89;59.00;94974.13;5094527;28;1914;-57
2023/09/24 12:14:53;;;;;;;;;;;;;;;25.92;59.84;94967.34;5094574;28;995;-57
2023/09/24 12:17:19;;;;;;;;;;;;;;;25.83;63.47;94967.78;5094155;28;1067;-57
2023/09/24 12:19:46;;;;;;;;;;;;;;;25.83;60.25;94984.19;5100896;28;2514;-57
2023/09/24 12:22:12;;;;;;;;;;;;;;;25.92;59.92;94990.06;5113864;28;937;-58
2023/09/24 12:24:38;;;;;;;;;;;;;;;25.90;61.61;94973.84;5114667;28;995;-58
2023/09/24 12:27:04;;;;;;;;;;;;;;;25.82;62.31;94982.56;5113487;28;1463;-58
2023/09/24 12:29:30;;;;;;;;;;;;;;;25.79;62.05;94990.47;5114320;28;1036;-58
2023/09/24 12:31:56;;;;;;;;;;;;;;;25.82;59.84;94979.81;5114262;28;1906;-57
2023/09/24 12:34:22;;;;;;;;;;;;;;;25.78;61.62;94977.84;5114524;28;1003;-57
2023/09/24 12:36:48;;;;;;;;;;;;;;;25.70;62.52;94987.38;5114634;28;967;-57
2023/09/24 12:39:18;;;;;;;;;;;;;;;25.75;64.14;94972.91;5100050;28;2502;-58
2023/09/24 12:41:43;;;;;;;;;;;;;;;25.66;68.80;94975.28;5094150;28;994;-58
2023/09/24 12:44:10;;;;;;;;;;;;;;;25.55;68.19;94981.75;5093874;28;1047;-57
2023/09/24 12:46:36;;;;;;;;;;;;;;;25.42;69.03;94972.91;5093690;28;1032;-57
2023/09/24 12:49:02;;;;;;;;;;;;;;;25.23;73.48;94990.72;5093002;28;1083;-58
2023/09/24 12:51:28;;;;;;;;;;;;;;;25.30;72.49;94994.09;5094272;28;2532;-58
2023/09/24 12:53:55;;;;;;;;;;;;;;;25.47;70.71;94961.16;5093490;28;1285;-58
2023/09/24 12:56:22;;;;;;;;;;;;;;;25.47;72.64;94929.13;5093571;28;1989;-58
2023/09/24 12:58:49;;;;;;;;;;;;;;;25.35;72.17;94939.44;5102894;28;1162;-58
2023/09/24 13:01:18;;;;;;;;;;;;;;;25.42;65.64;94940.06;5114088;28;1007;-58
2023/09/24 13:03:44;;;;;;;;;;;;;;;25.47;64.72;94939.25;5113849;28;1024;-58